createdAt,value
2022-11-02T00:01:28.130Z,12.61
2022-11-02T00:03:56.811Z,12.45
2022-11-02T00:06:25.180Z,12.46
2022-11-02T00:08:53.336Z,12.58
2022-11-02T00:11:22.935Z,12.55
2022-11-02T00:13:51.152Z,12.57
2022-11-02T00:16:22.155Z,12.42
2022-11-02T00:18:55.898Z,12.38
2022-11-02T00:21:26.660Z,12.32
2022-11-02T00:23:56.034Z,12.35
2022-11-02T00:26:26.162Z,12.36
2022-11-02T00:28:55.192Z,12.33
2022-11-02T00:31:23.724Z,12.36
2022-11-02T00:33:52.660Z,12.30
2022-11-02T00:36:21.082Z,12.34
2022-11-02T00:38:49.525Z,12.23
2022-11-02T00:41:19.472Z,12.33
2022-11-02T00:43:49.260Z,12.35
2022-11-02T00:46:17.528Z,12.35
2022-11-02T00:48:45.713Z,12.26
2022-11-02T00:51:14.076Z,12.27
2022-11-02T00:53:44.028Z,12.37
2022-11-02T00:56:12.298Z,12.48
2022-11-02T00:58:40.602Z,12.46
2022-11-02T01:01:12.046Z,12.47
2022-11-02T01:03:43.098Z,12.46
2022-11-02T01:06:13.170Z,12.44
2022-11-02T01:08:41.751Z,12.42
2022-11-02T01:11:14.600Z,12.36
2022-11-02T01:13:44.096Z,12.32
2022-11-02T01:16:15.485Z,12.19
2022-11-02T01:18:44.436Z,12.10
2022-11-02T01:21:13.737Z,12.17
2022-11-02T01:23:41.947Z,12.29
2022-11-02T01:26:12.680Z,12.31
2022-11-02T01:28:42.238Z,12.22
2022-11-02T01:31:11.386Z,12.13
2022-11-02T01:33:44.942Z,12.06
2022-11-02T01:36:15.560Z,12.11
2022-11-02T01:38:43.848Z,12.10
2022-11-02T01:41:13.623Z,12.17
2022-11-02T01:43:43.082Z,12.22
2022-11-02T01:46:17.825Z,12.20
2022-11-02T01:48:50.420Z,12.07
2022-11-02T01:51:23.248Z,12.04
2022-11-02T01:53:53.617Z,12.02
2022-11-02T01:56:25.031Z,12.06
2022-11-02T01:58:57.556Z,12.08
2022-11-02T02:01:26.505Z,12.01
2022-11-02T02:03:58.269Z,12.17
2022-11-02T02:06:27.709Z,11.98
2022-11-02T02:08:59.777Z,11.94
2022-11-02T02:11:33.651Z,11.99
2022-11-02T02:14:05.378Z,11.98
2022-11-02T02:16:58.156Z,11.97
2022-11-02T02:19:40.152Z,11.98
2022-11-02T02:22:31.404Z,11.92
2022-11-02T02:25:10.871Z,11.93
2022-11-02T02:28:06.434Z,11.92
2022-11-02T02:30:41.293Z,11.99
2022-11-02T02:33:15.546Z,11.90
2022-11-02T02:35:47.656Z,11.98
2022-11-02T02:38:22.566Z,12.03
2022-11-02T02:40:58.447Z,12.13
2022-11-02T02:43:35.673Z,12.13
2022-11-02T02:46:09.673Z,12.17
2022-11-02T02:48:41.895Z,12.20
2022-11-02T02:51:13.497Z,12.10
2022-11-02T02:53:45.808Z,12.00
2022-11-02T02:56:18.796Z,11.99
2022-11-02T02:58:52.789Z,12.08
2022-11-02T03:01:21.543Z,12.06
2022-11-02T03:03:50.355Z,12.03
2022-11-02T03:06:24.662Z,12.04
2022-11-02T03:09:03.955Z,11.98
2022-11-02T03:11:33.899Z,11.98
2022-11-02T03:14:12.477Z,11.98
2022-11-02T03:19:43.139Z,12.05
2022-11-02T03:22:22.255Z,12.05
2022-11-02T03:25:00.322Z,12.03
2022-11-02T03:27:39.711Z,11.99
2022-11-02T03:30:12.805Z,11.91
2022-11-02T03:32:48.779Z,11.98
2022-11-02T03:35:21.854Z,11.98
2022-11-02T03:37:53.874Z,11.99
2022-11-02T03:40:28.340Z,11.98
2022-11-02T03:42:58.337Z,11.82
2022-11-02T03:45:32.799Z,11.75
2022-11-02T03:48:05.891Z,11.66
2022-11-02T03:50:36.110Z,11.57
2022-11-02T03:53:08.585Z,11.60
2022-11-02T03:55:40.691Z,11.57
2022-11-02T03:58:11.495Z,11.46
2022-11-02T04:00:49.485Z,11.38
2022-11-02T04:03:19.438Z,11.33
2022-11-02T04:05:47.787Z,11.31
2022-11-02T04:08:30.088Z,11.26
2022-11-02T04:11:19.391Z,11.28
2022-11-02T04:14:06.195Z,11.23
2022-11-02T04:16:42.235Z,11.25
2022-11-02T04:19:28.245Z,11.20
2022-11-02T04:22:19.113Z,11.16
2022-11-02T04:25:08.631Z,11.14
2022-11-02T04:27:37.483Z,11.14
2022-11-02T04:30:06.903Z,11.02
2022-11-02T04:32:58.397Z,10.94
2022-11-02T04:35:30.080Z,10.92
2022-11-02T04:38:17.736Z,11.03
2022-11-02T04:40:46.979Z,11.04
2022-11-02T04:43:15.575Z,10.95
2022-11-02T04:45:44.207Z,10.95
2022-11-02T04:48:14.226Z,10.93
2022-11-02T04:50:42.544Z,10.85
2022-11-02T04:53:11.047Z,10.82
2022-11-02T04:55:41.055Z,10.73
2022-11-02T04:58:09.400Z,10.69
2022-11-02T05:00:38.258Z,10.62
2022-11-02T05:03:12.369Z,10.66
2022-11-02T05:05:43.765Z,10.59
2022-11-02T05:08:12.954Z,10.57
2022-11-02T05:10:41.242Z,10.51
2022-11-02T05:13:11.611Z,10.50
2022-11-02T05:15:40.185Z,10.48
2022-11-02T05:18:10.242Z,10.45
2022-11-02T05:20:40.577Z,10.44
2022-11-02T05:23:10.187Z,10.38
2022-11-02T05:25:38.363Z,10.48
2022-11-02T05:28:07.521Z,10.45
2022-11-02T05:30:35.735Z,10.35
2022-11-02T05:33:04.174Z,10.30
2022-11-02T05:35:32.517Z,10.27
2022-11-02T05:38:00.910Z,10.24
2022-11-02T05:40:30.551Z,10.15
2022-11-02T05:43:01.662Z,10.22
2022-11-02T05:45:30.801Z,10.30
2022-11-02T05:48:01.470Z,10.27
2022-11-02T05:50:29.925Z,10.21
2022-11-02T05:52:59.874Z,10.23
2022-11-02T05:55:28.317Z,10.18
2022-11-02T05:57:58.151Z,10.13
2022-11-02T06:00:26.726Z,10.12
2022-11-02T06:02:58.793Z,10.14
2022-11-02T06:05:27.503Z,10.13
2022-11-02T06:07:59.560Z,10.06
2022-11-02T06:10:28.295Z,10.11
2022-11-02T06:12:59.406Z,10.06
2022-11-02T06:15:28.214Z,10.12
2022-11-02T06:17:56.363Z,10.13
2022-11-02T06:20:25.068Z,10.09
2022-11-02T06:22:53.264Z,10.04
2022-11-02T06:25:21.511Z,10.05
2022-11-02T06:27:53.502Z,9.99
2022-11-02T06:30:23.963Z,10.05
2022-11-02T06:32:53.780Z,10.11
2022-11-02T06:35:23.406Z,10.10
2022-11-02T06:37:51.573Z,10.14
2022-11-02T06:40:22.591Z,10.13
2022-11-02T06:43:15.267Z,10.10
2022-11-02T06:45:46.778Z,10.05
2022-11-02T06:48:15.094Z,10.01
2022-11-02T06:50:43.463Z,9.95
2022-11-02T06:53:12.180Z,9.95
2022-11-02T06:55:40.369Z,9.89
2022-11-02T06:58:08.640Z,9.90
2022-11-02T07:00:37.240Z,9.96
2022-11-02T07:03:08.907Z,9.91
2022-11-02T07:05:37.803Z,9.91
2022-11-02T07:08:06.595Z,9.93
2022-11-02T07:10:36.405Z,9.95
2022-11-02T07:13:05.000Z,9.97
2022-11-02T07:15:33.406Z,10.08
2022-11-02T07:18:02.252Z,10.04
2022-11-02T07:20:31.806Z,10.10
2022-11-02T07:23:01.590Z,10.12
2022-11-02T07:25:32.127Z,10.13
2022-11-02T07:28:01.014Z,10.19
2022-11-02T07:30:29.738Z,10.21
2022-11-02T07:32:58.068Z,10.20
2022-11-02T07:35:26.458Z,10.21
2022-11-02T07:38:00.708Z,10.27
2022-11-02T07:40:30.179Z,10.31
2022-11-02T07:42:58.794Z,10.37
2022-11-02T07:45:59.358Z,10.37
2022-11-02T07:48:27.971Z,10.41
2022-11-02T07:50:58.644Z,10.43
2022-11-02T07:53:29.399Z,10.44
2022-11-02T07:55:57.570Z,10.50
2022-11-02T07:58:26.964Z,10.51
2022-11-02T08:00:59.553Z,10.55
2022-11-02T08:03:30.136Z,10.57
2022-11-02T08:06:02.800Z,10.67
2022-11-02T08:08:32.702Z,10.70
2022-11-02T08:11:06.205Z,10.66
2022-11-02T08:13:35.453Z,10.68
2022-11-02T08:16:08.670Z,10.71
2022-11-02T08:18:36.965Z,10.68
2022-11-02T08:21:05.587Z,10.80
2022-11-02T08:23:35.182Z,10.85
2022-11-02T08:26:04.058Z,10.95
2022-11-02T08:28:38.560Z,10.97
2022-11-02T08:31:07.937Z,11.05
2022-11-02T08:33:36.097Z,11.14
2022-11-02T08:36:05.988Z,11.19
2022-11-02T08:38:39.348Z,11.24
2022-11-02T08:41:07.694Z,11.28
2022-11-02T08:43:36.008Z,11.36
2022-11-02T08:46:19.661Z,11.40
2022-11-02T08:48:47.797Z,11.46
2022-11-02T08:51:16.158Z,11.48
2022-11-02T08:53:51.244Z,11.56
2022-11-02T08:56:19.947Z,11.69
2022-11-02T08:58:48.154Z,11.76
2022-11-02T09:01:16.460Z,11.82
2022-11-02T09:03:46.946Z,11.92
2022-11-02T09:06:15.099Z,11.85
2022-11-02T09:08:43.290Z,11.93
2022-11-02T09:11:13.020Z,11.94
2022-11-02T09:13:41.613Z,11.99
2022-11-02T09:16:10.922Z,12.14
2022-11-02T09:18:39.359Z,12.16
2022-11-02T09:21:08.207Z,12.25
2022-11-02T09:23:36.449Z,12.27
2022-11-02T09:26:04.960Z,12.42
2022-11-02T09:28:34.570Z,12.38
2022-11-02T09:31:04.831Z,12.46
2022-11-02T09:33:36.263Z,12.58
2022-11-02T09:36:06.682Z,12.48
2022-11-02T09:38:35.150Z,12.51
2022-11-02T09:41:13.388Z,12.57
2022-11-02T09:43:52.689Z,12.70
2022-11-02T09:46:26.045Z,12.78
2022-11-02T09:48:57.169Z,12.78
2022-11-02T09:51:29.576Z,12.82
2022-11-02T09:54:05.028Z,12.96
2022-11-02T09:56:34.669Z,13.15
2022-11-02T09:59:11.231Z,13.15
2022-11-02T10:01:50.426Z,13.08
2022-11-02T10:04:49.114Z,13.12
2022-11-02T10:07:24.551Z,13.29
2022-11-02T10:09:56.040Z,13.43
2022-11-02T10:12:30.891Z,13.36
2022-11-02T10:15:06.911Z,13.24
2022-11-02T10:17:38.802Z,13.38
2022-11-02T10:20:17.934Z,13.26
2022-11-02T10:22:47.805Z,13.19
2022-11-02T10:25:18.049Z,13.33
2022-11-02T10:27:51.293Z,13.44
2022-11-02T10:30:22.103Z,13.37
2022-11-02T10:32:53.866Z,13.49
2022-11-02T10:35:41.240Z,13.62
2022-11-02T10:38:27.044Z,13.61
2022-11-02T10:41:20.369Z,13.27
2022-11-02T10:44:04.410Z,13.47
2022-11-02T10:47:06.008Z,13.64
2022-11-02T10:49:51.269Z,13.70
2022-11-02T10:52:19.981Z,13.82
2022-11-02T10:54:51.021Z,14.08
2022-11-02T10:57:23.476Z,14.12
2022-11-02T11:00:24.030Z,14.03
2022-11-02T11:03:06.392Z,14.18
2022-11-02T11:05:36.190Z,14.14
2022-11-02T11:08:32.535Z,14.06
2022-11-02T11:11:29.289Z,14.08
2022-11-02T11:16:50.807Z,14.14
2022-11-02T11:19:38.558Z,14.29
2022-11-02T11:22:26.087Z,14.19
2022-11-02T11:24:54.627Z,14.30
2022-11-02T11:27:23.416Z,14.49
2022-11-02T11:29:55.210Z,14.50
2022-11-02T11:32:29.797Z,14.73
2022-11-02T11:35:03.844Z,14.56
2022-11-02T11:37:32.446Z,14.77
2022-11-02T11:40:03.615Z,14.71
2022-11-02T11:42:36.709Z,14.53
2022-11-02T11:45:09.093Z,14.59
2022-11-02T11:47:41.299Z,14.68
2022-11-02T11:50:21.477Z,14.77
2022-11-02T11:53:11.102Z,14.87
2022-11-02T11:55:47.992Z,14.82
2022-11-02T11:58:19.817Z,14.81
2022-11-02T12:01:09.188Z,14.87
2022-11-02T12:03:53.232Z,14.98
2022-11-02T12:06:31.570Z,14.81
2022-11-02T12:09:07.111Z,14.53
2022-11-02T12:11:46.621Z,14.52
2022-11-02T12:14:38.380Z,14.57
2022-11-02T12:17:22.345Z,14.54
2022-11-02T12:20:14.695Z,14.84
2022-11-02T12:22:51.509Z,15.14
2022-11-02T12:25:32.472Z,15.30
2022-11-02T12:28:14.318Z,15.18
2022-11-02T12:30:52.886Z,15.01
2022-11-02T12:33:34.731Z,15.28
2022-11-02T12:36:13.509Z,15.45
2022-11-02T12:39:03.650Z,15.26
2022-11-02T12:41:56.660Z,15.33
2022-11-02T12:44:50.200Z,15.33
2022-11-02T12:47:26.940Z,15.30
2022-11-02T12:50:09.650Z,15.17
2022-11-02T12:52:51.948Z,15.31
2022-11-02T12:55:25.695Z,15.41
2022-11-02T12:57:59.155Z,15.38
2022-11-02T13:00:29.396Z,15.38
2022-11-02T13:03:05.971Z,15.24
2022-11-02T13:05:40.120Z,15.25
2022-11-02T13:08:15.771Z,15.34
2022-11-02T13:10:53.325Z,15.40
2022-11-02T13:13:29.811Z,15.29
2022-11-02T13:15:59.802Z,15.34
2022-11-02T13:18:32.168Z,15.33
2022-11-02T13:21:03.743Z,15.19
2022-11-02T13:23:37.378Z,15.03
2022-11-02T13:26:13.068Z,15.06
2022-11-02T13:28:45.820Z,15.01
2022-11-02T13:31:17.894Z,14.97
2022-11-02T13:33:49.592Z,14.93
2022-11-02T13:36:17.971Z,14.95
2022-11-02T13:38:49.386Z,14.94
2022-11-02T13:41:38.166Z,14.89
2022-11-02T13:44:20.641Z,14.92
2022-11-02T13:47:06.619Z,14.99
2022-11-02T13:49:38.772Z,15.06
2022-11-02T13:52:15.046Z,14.98
2022-11-02T13:54:46.941Z,14.91
2022-11-02T13:57:34.747Z,14.84
2022-11-02T14:00:06.101Z,14.74
2022-11-02T14:02:39.049Z,14.82
2022-11-02T14:05:09.670Z,14.67
2022-11-02T14:07:42.085Z,14.59
2022-11-02T14:10:17.469Z,14.70
2022-11-02T14:12:47.958Z,14.68
2022-11-02T14:15:42.266Z,14.59
2022-11-02T14:18:31.250Z,14.65
2022-11-02T14:21:20.410Z,14.72
2022-11-02T14:23:48.679Z,14.64
2022-11-02T14:26:34.541Z,14.62
2022-11-02T14:29:29.895Z,14.54
2022-11-02T14:32:05.064Z,14.49
2022-11-02T14:34:54.024Z,14.37
2022-11-02T14:37:53.303Z,14.37
2022-11-02T14:40:30.342Z,14.32
2022-11-02T14:43:22.466Z,14.19
2022-11-02T14:46:08.283Z,14.17
2022-11-02T14:48:48.158Z,14.24
2022-11-02T14:51:21.600Z,14.13
2022-11-02T14:53:51.257Z,14.12
2022-11-02T14:56:19.525Z,14.14
2022-11-02T14:58:53.917Z,14.14
2022-11-02T15:01:22.823Z,14.14
2022-11-02T15:03:56.342Z,14.13
2022-11-02T15:06:27.210Z,14.10
2022-11-02T15:08:57.702Z,14.07
2022-11-02T15:11:50.142Z,14.13
2022-11-02T15:14:49.487Z,14.13
2022-11-02T15:18:06.491Z,14.10
2022-11-02T15:20:36.280Z,14.03
2022-11-02T15:23:31.221Z,13.95
2022-11-02T15:26:01.695Z,13.89
2022-11-02T15:28:33.796Z,13.79
2022-11-02T15:31:08.563Z,13.79
2022-11-02T15:33:40.217Z,13.70
2022-11-02T15:36:19.022Z,13.62
2022-11-02T15:38:49.318Z,13.52
2022-11-02T15:41:29.545Z,13.48
2022-11-02T15:44:20.910Z,13.53
2022-11-02T15:47:00.584Z,13.50
2022-11-02T15:49:43.674Z,13.37
2022-11-02T15:52:25.063Z,13.23
2022-11-02T15:55:07.542Z,13.18
2022-11-02T15:57:45.054Z,13.07
2022-11-02T16:00:20.309Z,13.05
2022-11-02T16:02:51.099Z,13.03
2022-11-02T16:05:23.505Z,13.02
2022-11-02T16:08:11.772Z,13.01
2022-11-02T16:10:40.558Z,12.94
2022-11-02T16:13:17.926Z,12.95
2022-11-02T16:15:48.614Z,12.90
2022-11-02T16:18:28.337Z,12.86
2022-11-02T16:21:00.570Z,12.87
2022-11-02T16:23:33.270Z,12.84
2022-11-02T16:26:03.501Z,12.75
2022-11-02T16:28:33.651Z,12.78
2022-11-02T16:31:15.636Z,12.65
2022-11-02T16:33:49.197Z,12.65
2022-11-02T16:36:19.680Z,12.63
2022-11-02T16:38:55.293Z,12.55
2022-11-02T16:41:25.955Z,12.46
2022-11-02T16:43:55.547Z,12.35
2022-11-02T16:46:31.166Z,12.40
2022-11-02T16:49:19.742Z,12.33
2022-11-02T16:51:53.028Z,12.55
2022-11-02T16:54:31.515Z,12.53
2022-11-02T16:57:10.203Z,12.44
2022-11-02T16:59:48.813Z,12.29
2022-11-02T17:02:17.342Z,12.19
2022-11-02T17:04:48.178Z,12.26
2022-11-02T17:07:23.404Z,12.38
2022-11-02T17:09:55.802Z,12.34
2022-11-02T17:12:32.467Z,12.25
2022-11-02T17:15:02.934Z,12.34
2022-11-02T17:17:38.184Z,12.31
2022-11-02T17:20:15.949Z,12.27
2022-11-02T17:22:54.997Z,12.25
2022-11-02T17:25:26.712Z,12.25
2022-11-02T17:27:56.357Z,12.27
2022-11-02T17:30:47.754Z,12.25
2022-11-02T17:33:30.013Z,12.20
2022-11-02T17:36:05.749Z,12.18
2022-11-02T17:38:34.526Z,12.19
2022-11-02T17:41:24.382Z,12.21
2022-11-02T17:43:51.950Z,12.12
2022-11-02T17:46:20.204Z,12.10
2022-11-02T17:48:48.367Z,12.18
2022-11-02T17:51:16.976Z,12.14
2022-11-02T17:53:45.187Z,12.21
2022-11-02T17:56:14.961Z,12.20
2022-11-02T17:58:43.119Z,12.17
2022-11-02T18:01:13.149Z,12.06
2022-11-02T18:03:42.929Z,12.06
2022-11-02T18:06:11.089Z,12.07
2022-11-02T18:08:53.118Z,12.11
2022-11-02T18:11:26.321Z,12.06
2022-11-02T18:13:54.973Z,12.10
2022-11-02T18:16:23.276Z,12.12
2022-11-02T18:18:51.497Z,12.10
2022-11-02T18:21:19.677Z,12.14
2022-11-02T18:23:48.286Z,12.13
2022-11-02T18:26:16.573Z,12.05
2022-11-02T18:28:46.176Z,12.00
2022-11-02T18:31:14.418Z,12.02
2022-11-02T18:33:44.081Z,12.07
2022-11-02T18:36:12.757Z,12.17
2022-11-02T18:38:42.259Z,12.07
2022-11-02T18:41:25.825Z,12.05
2022-11-02T18:44:03.326Z,12.08
2022-11-02T18:46:33.491Z,12.01
2022-11-02T18:49:01.809Z,12.04
2022-11-02T18:51:30.247Z,12.00
2022-11-02T18:53:59.972Z,12.03
2022-11-02T18:56:28.624Z,12.02
2022-11-02T18:58:58.947Z,12.00
2022-11-02T19:01:28.239Z,12.02
2022-11-02T19:03:58.235Z,12.06
2022-11-02T19:06:47.549Z,12.07
2022-11-02T19:09:20.634Z,12.01
2022-11-02T19:11:51.445Z,12.04
2022-11-02T19:14:22.860Z,12.06
2022-11-02T19:16:51.081Z,12.06
2022-11-02T19:19:19.621Z,12.07
2022-11-02T19:21:48.650Z,12.11
2022-11-02T19:24:16.897Z,12.14
2022-11-02T19:26:45.163Z,12.15
2022-11-02T19:29:13.750Z,12.15
2022-11-02T19:31:43.648Z,12.14
2022-11-02T19:34:11.994Z,12.19
2022-11-02T19:36:40.465Z,12.19
2022-11-02T19:39:10.131Z,12.18
2022-11-02T19:41:39.826Z,12.20
2022-11-02T19:44:07.996Z,12.26
2022-11-02T19:46:36.411Z,12.27
2022-11-02T19:49:06.030Z,12.22
2022-11-02T19:51:34.197Z,12.26
2022-11-02T19:54:03.625Z,12.18
2022-11-02T19:56:33.199Z,12.26
2022-11-02T19:59:01.807Z,12.35
2022-11-02T20:01:31.864Z,12.27
2022-11-02T20:04:00.839Z,12.20
2022-11-02T20:06:33.689Z,12.28
2022-11-02T20:09:04.305Z,12.21
2022-11-02T20:11:33.008Z,12.18
2022-11-02T20:14:03.233Z,12.31
2022-11-02T20:16:31.389Z,12.30
2022-11-02T20:19:00.044Z,12.29
2022-11-02T20:21:35.681Z,12.31
2022-11-02T20:24:08.921Z,12.30
2022-11-02T20:26:38.394Z,12.32
2022-11-02T20:29:10.832Z,12.31
2022-11-02T20:31:44.382Z,12.26
2022-11-02T20:34:13.940Z,12.33
2022-11-02T20:36:43.517Z,12.31
2022-11-02T20:39:13.374Z,12.27
2022-11-02T20:41:41.570Z,12.26
2022-11-02T20:44:09.864Z,12.21
2022-11-02T20:46:41.477Z,12.20
2022-11-02T20:49:21.947Z,12.15
2022-11-02T20:52:00.446Z,12.22
2022-11-02T20:54:30.000Z,12.26
2022-11-02T20:56:58.638Z,12.31
2022-11-02T20:59:26.812Z,12.28
2022-11-02T21:01:55.310Z,12.27
2022-11-02T21:04:23.602Z,12.23
2022-11-02T21:06:51.812Z,12.27
2022-11-02T21:09:22.115Z,12.23
2022-11-02T21:12:08.362Z,12.23
2022-11-02T21:14:36.601Z,12.30
2022-11-02T21:17:06.790Z,12.23
2022-11-02T21:19:35.557Z,12.25
2022-11-02T21:22:03.736Z,12.26
2022-11-02T21:24:33.363Z,12.21
2022-11-02T21:27:01.719Z,12.16
2022-11-02T21:29:29.910Z,12.16
2022-11-02T21:31:58.360Z,12.20
2022-11-02T21:34:26.543Z,12.26
2022-11-02T21:36:54.735Z,12.27
2022-11-02T21:39:22.872Z,12.23
2022-11-02T21:41:52.429Z,12.23
2022-11-02T21:44:20.948Z,12.28
2022-11-02T21:46:50.890Z,12.20
2022-11-02T21:49:19.100Z,12.23
2022-11-02T21:51:47.351Z,12.29
2022-11-02T21:54:15.725Z,12.32
2022-11-02T21:56:43.941Z,12.34
2022-11-02T21:59:13.735Z,12.31
2022-11-02T22:01:48.328Z,12.34
2022-11-02T22:04:19.561Z,12.32
2022-11-02T22:06:47.900Z,12.31
2022-11-02T22:09:16.133Z,12.27
2022-11-02T22:11:45.121Z,12.29
2022-11-02T22:14:15.282Z,12.35
2022-11-02T22:16:44.420Z,12.36
2022-11-02T22:19:14.025Z,12.33
2022-11-02T22:21:44.190Z,12.36
2022-11-02T22:24:13.451Z,12.37
2022-11-02T22:26:42.347Z,12.37
2022-11-02T22:29:10.970Z,12.40
2022-11-02T22:31:44.605Z,12.40
2022-11-02T22:34:14.636Z,12.44
2022-11-02T22:36:44.405Z,12.40
2022-11-02T22:39:13.444Z,12.40
2022-11-02T22:41:43.279Z,12.38
2022-11-02T22:44:13.155Z,12.47
2022-11-02T22:46:43.838Z,12.48
2022-11-02T22:49:13.871Z,12.38
2022-11-02T22:51:43.857Z,12.37
2022-11-02T22:54:15.669Z,12.46
2022-11-02T22:56:45.557Z,12.38
2022-11-02T22:59:13.813Z,12.41
2022-11-02T23:01:43.685Z,12.44
2022-11-02T23:04:12.910Z,12.36
2022-11-02T23:06:41.341Z,12.38
2022-11-02T23:09:12.101Z,12.42
2022-11-02T23:11:40.611Z,12.36
2022-11-02T23:14:10.616Z,12.31
2022-11-02T23:16:40.594Z,12.23
2022-11-02T23:19:25.357Z,12.16
2022-11-02T23:22:14.364Z,12.12
2022-11-02T23:25:02.212Z,12.07
2022-11-02T23:27:32.021Z,12.10
2022-11-02T23:30:18.302Z,12.26
2022-11-02T23:32:46.675Z,12.27
2022-11-02T23:35:33.900Z,12.27
2022-11-02T23:38:05.256Z,12.26
2022-11-02T23:40:33.883Z,12.21
2022-11-02T23:43:03.010Z,12.18
2022-11-02T23:45:31.503Z,12.17
2022-11-02T23:48:01.046Z,12.21
2022-11-02T23:50:49.902Z,12.20
2022-11-02T23:53:36.691Z,12.23
2022-11-02T23:56:23.688Z,12.18
2022-11-02T23:59:06.474Z,12.20
